createdAt,value
2023-01-19T00:01:32.441Z,1.36
2023-01-19T00:04:00.001Z,1.34
2023-01-19T00:06:27.560Z,1.39
2023-01-19T00:08:55.057Z,1.42
2023-01-19T00:11:22.636Z,1.48
2023-01-19T00:13:50.825Z,1.47
2023-01-19T00:16:22.966Z,1.48
2023-01-19T00:18:52.369Z,1.50
2023-01-19T00:21:21.452Z,1.49
2023-01-19T00:23:51.076Z,1.52
2023-01-19T00:26:19.335Z,1.57
2023-01-19T00:28:47.169Z,1.58
2023-01-19T00:31:14.732Z,1.53
2023-01-19T00:33:43.623Z,1.55
2023-01-19T00:36:11.503Z,1.53
2023-01-19T00:38:39.648Z,1.63
2023-01-19T00:41:07.500Z,1.55
2023-01-19T00:43:35.050Z,1.63
2023-01-19T00:46:02.752Z,1.64
2023-01-19T00:48:30.726Z,1.69
2023-01-19T00:50:59.995Z,1.65
2023-01-19T00:53:29.079Z,1.67
2023-01-19T00:55:56.638Z,1.67
2023-01-19T00:58:24.190Z,1.73
2023-01-19T01:00:54.660Z,1.76
2023-01-19T01:03:28.006Z,1.82
2023-01-19T01:05:55.740Z,1.73
2023-01-19T01:08:25.103Z,1.79
2023-01-19T01:10:53.112Z,1.78
2023-01-19T01:13:21.931Z,1.84
2023-01-19T01:15:51.024Z,1.85
2023-01-19T01:18:18.562Z,1.88
2023-01-19T01:20:46.073Z,1.89
2023-01-19T01:23:14.022Z,1.81
2023-01-19T01:25:43.341Z,1.85
2023-01-19T01:28:11.020Z,1.86
2023-01-19T01:30:40.871Z,1.81
2023-01-19T01:33:09.259Z,1.82
2023-01-19T01:42:19.270Z,1.88
2023-01-19T01:44:51.128Z,1.85
2023-01-19T01:47:27.638Z,1.90
2023-01-19T01:50:01.973Z,1.90
2023-01-19T01:52:31.007Z,1.87
2023-01-19T01:54:59.198Z,1.84
2023-01-19T01:57:28.679Z,1.86
2023-01-19T01:59:58.235Z,1.89
2023-01-19T02:02:48.215Z,1.91
2023-01-19T02:05:18.454Z,1.89
2023-01-19T02:08:09.107Z,1.91
2023-01-19T02:10:54.539Z,1.87
2023-01-19T02:13:25.481Z,1.84
2023-01-19T02:15:55.939Z,1.93
2023-01-19T02:18:26.122Z,1.93
2023-01-19T02:21:00.511Z,1.95
2023-01-19T02:23:38.780Z,1.93
2023-01-19T02:26:09.420Z,1.92
2023-01-19T02:28:39.764Z,1.94
2023-01-19T02:31:07.640Z,2.00
2023-01-19T02:33:35.558Z,2.02
2023-01-19T02:36:03.821Z,2.04
2023-01-19T02:38:33.657Z,2.07
2023-01-19T02:41:03.179Z,2.03
2023-01-19T02:43:31.950Z,2.13
2023-01-19T02:45:59.569Z,2.08
2023-01-19T02:48:27.498Z,2.10
2023-01-19T02:50:57.717Z,2.18
2023-01-19T02:53:50.659Z,2.23
2023-01-19T02:56:45.543Z,2.18
2023-01-19T02:59:23.157Z,2.13
2023-01-19T03:02:09.751Z,2.09
2023-01-19T03:04:52.294Z,2.13
2023-01-19T03:07:29.042Z,2.11
2023-01-19T03:10:04.817Z,2.12
2023-01-19T03:12:40.612Z,2.10
2023-01-19T03:15:16.453Z,2.12
2023-01-19T03:17:46.331Z,2.09
2023-01-19T03:20:16.644Z,2.10
2023-01-19T03:22:45.442Z,2.11
2023-01-19T03:25:15.205Z,2.16
2023-01-19T03:27:44.910Z,2.09
2023-01-19T03:30:18.431Z,2.11
2023-01-19T03:32:50.736Z,2.14
2023-01-19T03:35:21.738Z,2.14
2023-01-19T03:37:52.979Z,2.10
2023-01-19T03:40:23.184Z,2.18
2023-01-19T03:42:51.357Z,2.14
2023-01-19T03:45:19.636Z,2.01
2023-01-19T03:47:47.395Z,2.05
2023-01-19T03:50:24.020Z,2.14
2023-01-19T03:53:02.194Z,2.12
2023-01-19T03:55:31.583Z,2.14
2023-01-19T03:57:59.135Z,2.12
2023-01-19T04:00:27.089Z,2.10
2023-01-19T04:02:55.388Z,2.12
2023-01-19T04:05:23.463Z,2.03
2023-01-19T04:07:51.373Z,2.09
2023-01-19T04:10:19.929Z,2.04
2023-01-19T04:12:49.368Z,2.06
2023-01-19T04:15:18.459Z,2.05
2023-01-19T04:17:45.985Z,2.03
2023-01-19T04:20:13.882Z,2.14
2023-01-19T04:22:42.499Z,2.05
2023-01-19T04:25:11.420Z,2.02
2023-01-19T04:27:39.012Z,2.13
2023-01-19T04:30:09.947Z,2.08
2023-01-19T04:32:37.515Z,2.10
2023-01-19T04:35:05.796Z,2.08
2023-01-19T04:37:33.377Z,2.06
2023-01-19T04:40:00.904Z,2.16
2023-01-19T04:42:28.504Z,2.13
2023-01-19T04:44:56.007Z,2.11
2023-01-19T04:47:24.894Z,2.23
2023-01-19T04:49:52.415Z,2.17
2023-01-19T04:52:20.246Z,2.19
2023-01-19T04:54:47.735Z,2.23
2023-01-19T04:57:15.259Z,2.18
2023-01-19T04:59:42.826Z,2.24
2023-01-19T05:02:11.297Z,2.20
2023-01-19T05:04:40.359Z,2.17
2023-01-19T05:07:07.916Z,2.23
2023-01-19T05:09:35.467Z,2.23
2023-01-19T05:12:03.039Z,2.28
2023-01-19T05:14:31.073Z,2.18
2023-01-19T05:16:58.699Z,2.15
2023-01-19T05:19:26.444Z,2.29
2023-01-19T05:21:55.353Z,2.16
2023-01-19T05:24:22.959Z,2.22
2023-01-19T05:26:50.517Z,2.23
2023-01-19T05:29:18.031Z,2.18
2023-01-19T05:31:45.552Z,2.16
2023-01-19T05:34:14.348Z,2.18
2023-01-19T05:36:42.244Z,2.22
2023-01-19T05:39:11.412Z,2.17
2023-01-19T05:41:39.002Z,2.22
2023-01-19T05:44:06.603Z,2.15
2023-01-19T05:46:34.403Z,2.16
2023-01-19T05:49:04.122Z,2.28
2023-01-19T05:51:35.025Z,2.27
2023-01-19T05:54:02.540Z,2.23
2023-01-19T05:56:31.452Z,2.22
2023-01-19T05:58:58.984Z,2.20
2023-01-19T06:01:27.114Z,2.21
2023-01-19T06:03:55.341Z,2.18
2023-01-19T06:06:23.513Z,2.18
2023-01-19T06:08:51.107Z,2.19
2023-01-19T06:11:18.688Z,2.12
2023-01-19T06:13:47.714Z,2.13
2023-01-19T06:16:15.608Z,2.14
2023-01-19T06:18:43.210Z,2.11
2023-01-19T06:21:13.505Z,2.16
2023-01-19T06:23:41.295Z,2.15
2023-01-19T06:26:09.122Z,2.19
2023-01-19T06:28:36.682Z,2.14
2023-01-19T06:31:06.320Z,2.07
2023-01-19T06:33:33.898Z,2.05
2023-01-19T06:36:01.628Z,2.11
2023-01-19T06:38:29.216Z,2.02
2023-01-19T06:40:59.475Z,2.11
2023-01-19T06:43:27.485Z,2.14
2023-01-19T06:45:56.020Z,2.10
2023-01-19T06:48:25.024Z,2.16
2023-01-19T06:50:52.523Z,2.24
2023-01-19T06:53:22.110Z,2.11
2023-01-19T06:55:49.728Z,2.24
2023-01-19T06:58:17.468Z,2.20
2023-01-19T07:00:45.123Z,2.17
2023-01-19T07:03:20.487Z,2.18
2023-01-19T07:05:52.395Z,2.16
2023-01-19T07:08:20.314Z,2.27
2023-01-19T07:11:25.977Z,2.22
2023-01-19T07:13:36.179Z,2.27
2023-01-19T07:16:07.371Z,2.31
2023-01-19T07:18:35.956Z,2.23
2023-01-19T07:21:05.946Z,2.17
2023-01-19T07:23:33.992Z,2.25
2023-01-19T07:26:02.402Z,2.24
2023-01-19T07:28:29.977Z,2.24
2023-01-19T07:30:58.006Z,2.22
2023-01-19T07:33:26.060Z,2.14
2023-01-19T07:35:54.692Z,2.29
2023-01-19T07:38:23.613Z,2.33
2023-01-19T07:40:51.188Z,2.20
2023-01-19T07:43:19.354Z,2.21
2023-01-19T07:45:47.058Z,2.30
2023-01-19T07:48:14.640Z,2.14
2023-01-19T07:50:42.202Z,2.29
2023-01-19T07:53:11.824Z,2.17
2023-01-19T07:55:40.954Z,2.21
2023-01-19T07:58:08.492Z,2.24
2023-01-19T08:00:37.860Z,2.28
2023-01-19T08:03:06.320Z,2.28
2023-01-19T08:05:34.736Z,2.25
2023-01-19T08:08:02.322Z,2.19
2023-01-19T08:10:30.087Z,2.24
2023-01-19T08:12:59.454Z,2.22
2023-01-19T08:15:27.682Z,2.18
2023-01-19T08:17:57.051Z,2.35
2023-01-19T08:20:25.219Z,2.46
2023-01-19T08:22:59.729Z,2.48
2023-01-19T08:25:32.637Z,2.37
2023-01-19T08:28:02.381Z,2.36
2023-01-19T08:30:30.330Z,2.28
2023-01-19T08:33:04.121Z,2.34
2023-01-19T08:35:31.996Z,2.53
2023-01-19T08:38:01.482Z,2.50
2023-01-19T08:40:29.770Z,2.51
2023-01-19T08:43:03.617Z,2.46
2023-01-19T08:45:31.906Z,2.40
2023-01-19T08:47:59.980Z,2.42
2023-01-19T08:50:27.841Z,2.58
2023-01-19T08:52:56.740Z,2.49
2023-01-19T08:55:24.404Z,2.54
2023-01-19T08:57:53.561Z,2.49
2023-01-19T09:00:22.914Z,2.46
2023-01-19T09:02:51.089Z,2.49
2023-01-19T09:05:18.921Z,2.52
2023-01-19T09:07:47.973Z,2.58
2023-01-19T09:10:16.090Z,2.56
2023-01-19T09:12:44.810Z,2.42
2023-01-19T09:15:14.070Z,2.50
2023-01-19T09:17:43.111Z,2.44
2023-01-19T09:20:11.717Z,2.51
2023-01-19T09:22:39.564Z,2.54
2023-01-19T09:25:08.222Z,2.61
2023-01-19T09:27:35.781Z,2.59
2023-01-19T09:30:03.721Z,2.51
2023-01-19T09:32:31.282Z,2.58
2023-01-19T09:35:00.123Z,2.57
2023-01-19T09:37:27.675Z,2.58
2023-01-19T09:39:55.459Z,2.57
2023-01-19T09:42:33.265Z,2.52
2023-01-19T09:45:02.217Z,2.60
2023-01-19T09:47:33.238Z,2.61
2023-01-19T09:50:06.676Z,2.58
2023-01-19T09:52:40.473Z,2.66
2023-01-19T09:55:20.449Z,2.80
2023-01-19T09:57:48.056Z,2.72
2023-01-19T10:00:17.329Z,2.59
2023-01-19T10:02:49.650Z,2.60
2023-01-19T10:05:27.775Z,2.73
2023-01-19T10:08:08.498Z,2.81
2023-01-19T10:10:37.419Z,2.62
2023-01-19T10:13:22.445Z,2.69
2023-01-19T10:15:57.478Z,2.75
2023-01-19T10:18:30.978Z,2.71
2023-01-19T10:21:05.984Z,2.83
2023-01-19T10:23:42.101Z,2.86
2023-01-19T10:26:16.491Z,2.78
2023-01-19T10:28:46.362Z,2.87
2023-01-19T10:31:15.193Z,2.99
2023-01-19T10:33:42.833Z,2.98
2023-01-19T10:36:20.088Z,2.94
2023-01-19T10:38:48.578Z,3.00
2023-01-19T10:41:22.119Z,3.06
2023-01-19T10:43:50.854Z,3.16
2023-01-19T10:46:23.129Z,3.11
2023-01-19T10:48:52.805Z,3.10
2023-01-19T10:51:22.058Z,2.97
2023-01-19T10:53:59.423Z,3.06
2023-01-19T10:56:31.697Z,3.08
2023-01-19T10:59:01.552Z,3.08
2023-01-19T11:01:31.112Z,3.06
2023-01-19T11:04:05.440Z,3.14
2023-01-19T11:06:35.647Z,3.21
2023-01-19T11:09:18.536Z,3.14
2023-01-19T11:11:50.079Z,3.08
2023-01-19T11:14:21.500Z,3.18
2023-01-19T11:16:52.588Z,3.02
2023-01-19T11:19:28.169Z,3.04
2023-01-19T11:22:15.991Z,3.24
2023-01-19T11:24:45.023Z,3.24
2023-01-19T11:27:17.995Z,3.10
2023-01-19T11:29:49.171Z,3.09
2023-01-19T11:32:22.928Z,3.16
2023-01-19T11:34:50.932Z,2.99
2023-01-19T11:37:30.612Z,2.97
2023-01-19T11:40:00.146Z,3.04
2023-01-19T11:42:30.977Z,2.98
2023-01-19T11:45:03.839Z,2.98
2023-01-19T11:47:36.918Z,2.99
2023-01-19T11:50:13.065Z,3.09
2023-01-19T11:52:46.027Z,3.02
2023-01-19T11:55:22.305Z,3.03
2023-01-19T11:57:54.315Z,3.00
2023-01-19T12:00:28.631Z,2.95
2023-01-19T12:03:02.802Z,3.00
2023-01-19T12:05:34.268Z,3.06
2023-01-19T12:08:07.781Z,3.02
2023-01-19T12:10:41.448Z,3.15
2023-01-19T12:13:19.522Z,3.27
2023-01-19T12:15:48.841Z,3.27
2023-01-19T12:18:21.789Z,3.31
2023-01-19T12:20:52.418Z,3.25
2023-01-19T12:23:34.517Z,3.34
2023-01-19T12:26:19.602Z,3.21
2023-01-19T12:28:49.459Z,3.30
2023-01-19T12:31:19.000Z,3.24
2023-01-19T12:33:47.706Z,3.38
2023-01-19T12:36:37.657Z,3.35
2023-01-19T12:39:13.470Z,3.34
2023-01-19T12:41:42.497Z,3.22
2023-01-19T12:44:25.191Z,3.29
2023-01-19T12:46:57.276Z,3.34
2023-01-19T12:49:28.130Z,3.24
2023-01-19T12:52:13.792Z,3.24
2023-01-19T12:54:51.591Z,3.15
2023-01-19T12:57:23.950Z,3.23
2023-01-19T12:59:57.208Z,3.28
2023-01-19T13:02:53.523Z,3.32
2023-01-19T13:05:47.434Z,3.38
2023-01-19T13:08:25.629Z,3.46
2023-01-19T13:11:17.761Z,3.31
2023-01-19T13:14:04.322Z,3.23
2023-01-19T13:16:56.832Z,3.34
2023-01-19T13:19:35.940Z,3.37
2023-01-19T13:23:04.419Z,3.34
2023-01-19T13:25:35.684Z,3.30
2023-01-19T13:28:10.267Z,3.34
2023-01-19T13:30:40.852Z,3.38
2023-01-19T13:33:18.597Z,3.51
2023-01-19T13:35:52.658Z,3.43
2023-01-19T13:38:20.577Z,3.57
2023-01-19T13:40:48.474Z,3.64
2023-01-19T13:43:21.607Z,3.68
2023-01-19T13:45:53.382Z,3.66
2023-01-19T13:48:23.222Z,3.68
2023-01-19T13:51:05.115Z,3.70
2023-01-19T13:53:34.107Z,3.78
2023-01-19T13:56:20.485Z,3.77
2023-01-19T13:59:12.695Z,3.79
2023-01-19T14:01:42.551Z,3.77
2023-01-19T14:04:32.424Z,3.95
2023-01-19T14:07:03.329Z,3.91
2023-01-19T14:09:31.086Z,3.92
2023-01-19T14:12:08.841Z,3.92
2023-01-19T14:14:37.973Z,3.95
2023-01-19T14:17:05.882Z,4.02
2023-01-19T14:19:49.028Z,4.00
2023-01-19T14:22:16.680Z,4.01
2023-01-19T14:24:44.235Z,3.94
2023-01-19T14:27:20.355Z,4.05
2023-01-19T14:29:50.582Z,3.89
2023-01-19T14:32:20.266Z,3.99
2023-01-19T14:34:50.080Z,4.10
2023-01-19T14:37:28.679Z,4.01
2023-01-19T14:39:59.933Z,3.94
2023-01-19T14:42:31.753Z,3.90
2023-01-19T14:45:03.780Z,3.83
2023-01-19T14:47:36.606Z,3.76
2023-01-19T14:50:10.680Z,3.88
2023-01-19T14:52:41.452Z,3.95
2023-01-19T14:55:20.142Z,3.98
2023-01-19T14:57:47.749Z,4.00
2023-01-19T15:00:18.747Z,4.00
2023-01-19T15:02:46.793Z,3.91
2023-01-19T15:05:14.862Z,3.93
2023-01-19T15:07:45.473Z,3.78
2023-01-19T15:10:18.846Z,3.88
2023-01-19T15:12:46.662Z,3.90
2023-01-19T15:15:18.091Z,3.81
2023-01-19T15:17:46.025Z,3.79
2023-01-19T15:20:18.981Z,3.78
2023-01-19T15:22:47.136Z,3.81
2023-01-19T15:25:16.066Z,3.86
2023-01-19T15:27:44.988Z,3.85
2023-01-19T15:30:21.162Z,3.84
2023-01-19T15:32:48.748Z,3.85
2023-01-19T15:35:18.533Z,3.77
2023-01-19T15:37:46.303Z,3.69
2023-01-19T15:40:14.654Z,3.77
2023-01-19T15:42:42.729Z,3.73
2023-01-19T15:45:34.444Z,3.69
2023-01-19T15:48:04.936Z,3.58
2023-01-19T15:50:32.951Z,3.54
2023-01-19T15:53:00.522Z,3.53
2023-01-19T15:55:28.063Z,3.49
2023-01-19T15:58:01.163Z,3.42
2023-01-19T16:00:29.675Z,3.34
2023-01-19T16:02:59.143Z,3.31
2023-01-19T16:05:41.510Z,3.44
2023-01-19T16:08:09.807Z,3.37
2023-01-19T16:10:37.843Z,3.38
2023-01-19T16:13:05.501Z,3.34
2023-01-19T16:15:35.666Z,3.39
2023-01-19T16:18:05.171Z,3.28
2023-01-19T16:20:33.212Z,3.35
2023-01-19T16:23:14.513Z,3.28
2023-01-19T16:25:42.875Z,3.29
2023-01-19T16:28:10.500Z,3.19
2023-01-19T16:30:38.073Z,3.10
2023-01-19T16:33:08.324Z,3.02
2023-01-19T16:35:35.853Z,3.01
2023-01-19T16:38:03.382Z,3.07
2023-01-19T16:40:30.975Z,3.01
2023-01-19T16:42:58.804Z,3.00
2023-01-19T16:45:26.466Z,2.97
2023-01-19T16:47:54.064Z,3.07
2023-01-19T16:50:22.904Z,3.03
2023-01-19T16:52:51.274Z,2.92
2023-01-19T16:55:18.905Z,2.93
2023-01-19T16:57:46.590Z,2.92
2023-01-19T17:00:15.057Z,2.85
2023-01-19T17:02:43.133Z,2.87
2023-01-19T17:05:11.266Z,2.81
2023-01-19T17:07:40.336Z,2.74
2023-01-19T17:10:09.803Z,2.79
2023-01-19T17:12:37.594Z,2.74
2023-01-19T17:15:05.978Z,2.71
2023-01-19T17:17:34.868Z,2.71
2023-01-19T17:20:03.382Z,2.67
2023-01-19T17:22:30.892Z,2.65
2023-01-19T17:24:59.768Z,2.68
2023-01-19T17:27:27.334Z,2.71
2023-01-19T17:29:55.018Z,2.74
2023-01-19T17:32:22.569Z,2.74
2023-01-19T17:34:50.435Z,2.76
2023-01-19T17:37:18.006Z,2.63
2023-01-19T17:39:45.512Z,2.67
2023-01-19T17:42:14.486Z,2.74
2023-01-19T17:44:42.815Z,2.72
2023-01-19T17:47:10.363Z,2.66
2023-01-19T17:49:37.994Z,2.68
2023-01-19T17:52:05.982Z,2.56
2023-01-19T17:54:33.817Z,2.61
2023-01-19T17:57:01.362Z,2.58
2023-01-19T17:59:30.318Z,2.53
2023-01-19T18:01:57.870Z,2.54
2023-01-19T18:04:25.425Z,2.56
2023-01-19T18:06:52.942Z,2.55
2023-01-19T18:09:20.476Z,2.57
2023-01-19T18:11:48.020Z,2.54
2023-01-19T18:14:15.588Z,2.48
2023-01-19T18:16:59.541Z,2.53
2023-01-19T18:19:27.236Z,2.51
2023-01-19T18:21:54.837Z,2.42
2023-01-19T18:24:22.416Z,2.49
2023-01-19T18:26:49.942Z,2.48
2023-01-19T18:29:19.204Z,2.33
2023-01-19T18:31:46.816Z,2.35
2023-01-19T18:34:15.665Z,2.37
2023-01-19T18:36:43.264Z,2.32
2023-01-19T18:39:10.884Z,2.35
2023-01-19T18:41:41.606Z,2.31
2023-01-19T18:44:09.800Z,2.27
2023-01-19T18:46:37.597Z,2.34
2023-01-19T18:49:06.007Z,2.22
2023-01-19T18:51:34.891Z,2.20
2023-01-19T18:54:02.418Z,2.24
2023-01-19T18:56:29.943Z,2.25
2023-01-19T18:58:57.486Z,2.27
2023-01-19T19:01:27.150Z,2.15
2023-01-19T19:03:55.608Z,2.31
2023-01-19T19:06:24.010Z,2.29
2023-01-19T19:08:54.468Z,2.16
2023-01-19T19:11:23.861Z,2.10
2023-01-19T19:13:53.653Z,2.17
2023-01-19T19:16:21.255Z,2.18
2023-01-19T19:18:49.803Z,2.15
2023-01-19T19:21:18.981Z,2.10
2023-01-19T19:23:51.053Z,2.02
2023-01-19T19:26:20.501Z,2.00
2023-01-19T19:28:48.239Z,1.88
2023-01-19T19:31:17.942Z,1.93
2023-01-19T19:33:45.540Z,1.83
2023-01-19T19:36:13.376Z,1.92
2023-01-19T19:38:42.718Z,1.90
2023-01-19T19:41:13.775Z,1.91
2023-01-19T19:43:43.001Z,1.90
2023-01-19T19:46:13.427Z,1.93
2023-01-19T19:48:41.852Z,1.91
2023-01-19T19:51:18.018Z,1.85
2023-01-19T19:53:46.260Z,1.86
2023-01-19T19:56:14.046Z,1.93
2023-01-19T19:58:44.070Z,1.91
2023-01-19T20:01:13.333Z,1.95
2023-01-19T20:03:41.008Z,1.95
2023-01-19T20:06:10.366Z,2.11
2023-01-19T20:08:37.964Z,1.94
2023-01-19T20:11:07.559Z,1.95
2023-01-19T20:13:35.693Z,1.98
2023-01-19T20:16:05.795Z,2.05
2023-01-19T20:18:34.134Z,1.97
2023-01-19T20:21:01.683Z,1.94
2023-01-19T20:23:29.279Z,1.91
2023-01-19T20:25:56.812Z,1.95
2023-01-19T20:28:24.402Z,1.91
2023-01-19T20:30:51.949Z,1.97
2023-01-19T20:33:20.871Z,1.93
2023-01-19T20:35:48.505Z,1.85
2023-01-19T20:38:16.047Z,1.97
2023-01-19T20:40:43.580Z,1.90
2023-01-19T20:43:11.101Z,1.83
2023-01-19T20:45:38.662Z,1.87
2023-01-19T20:48:06.418Z,1.87
2023-01-19T20:50:35.328Z,1.82
2023-01-19T20:53:02.841Z,1.83
2023-01-19T20:55:30.406Z,1.81
2023-01-19T20:57:57.963Z,1.90
2023-01-19T21:00:26.643Z,1.85
2023-01-19T21:02:54.219Z,1.92
2023-01-19T21:05:21.769Z,1.91
2023-01-19T21:07:51.106Z,1.83
2023-01-19T21:10:18.715Z,1.72
2023-01-19T21:12:46.227Z,1.81
2023-01-19T21:15:14.005Z,1.78
2023-01-19T21:17:43.144Z,1.72
2023-01-19T21:20:13.171Z,1.63
2023-01-19T21:22:40.865Z,1.72
2023-01-19T21:25:10.532Z,1.68
2023-01-19T21:27:38.113Z,1.66
2023-01-19T21:30:06.550Z,1.73
2023-01-19T21:32:34.137Z,1.64
2023-01-19T21:35:01.687Z,1.66
2023-01-19T21:37:30.346Z,1.68
2023-01-19T21:39:58.039Z,1.68
2023-01-19T21:42:26.963Z,1.64
2023-01-19T21:44:54.486Z,1.78
2023-01-19T21:47:22.052Z,1.85
2023-01-19T21:49:49.627Z,1.87
2023-01-19T21:52:17.200Z,1.95
2023-01-19T21:54:44.786Z,1.94
2023-01-19T21:57:15.083Z,1.91
2023-01-19T21:59:43.936Z,1.83
2023-01-19T22:02:13.382Z,1.86
2023-01-19T22:04:41.514Z,1.98
2023-01-19T22:07:09.120Z,1.94
2023-01-19T22:09:36.847Z,1.99
2023-01-19T22:12:04.615Z,1.88
2023-01-19T22:14:32.196Z,1.84
2023-01-19T22:17:01.092Z,1.89
2023-01-19T22:19:28.687Z,1.90
2023-01-19T22:21:56.223Z,1.96
2023-01-19T22:24:23.742Z,1.92
2023-01-19T22:26:51.322Z,1.99
2023-01-19T22:29:18.831Z,1.87
2023-01-19T22:31:46.901Z,1.95
2023-01-19T22:34:17.052Z,1.81
2023-01-19T22:36:44.789Z,1.89
2023-01-19T22:39:13.634Z,1.86
2023-01-19T22:41:43.115Z,1.85
2023-01-19T22:44:13.556Z,1.82
2023-01-19T22:46:41.379Z,1.88
2023-01-19T22:49:10.940Z,1.85
2023-01-19T22:51:39.825Z,1.81
2023-01-19T22:54:08.061Z,1.74
2023-01-19T22:56:37.624Z,1.71
2023-01-19T22:59:06.071Z,1.65
2023-01-19T23:01:35.398Z,1.64
2023-01-19T23:04:04.229Z,1.50
2023-01-19T23:06:33.262Z,1.37
2023-01-19T23:09:04.572Z,1.08
2023-01-19T23:11:35.955Z,1.19
2023-01-19T23:14:04.663Z,1.04
2023-01-19T23:16:32.204Z,1.07
2023-01-19T23:19:00.062Z,1.02
2023-01-19T23:21:29.551Z,0.97
2023-01-19T23:23:58.397Z,0.96
2023-01-19T23:26:27.765Z,0.96
2023-01-19T23:28:57.025Z,0.82
2023-01-19T23:31:26.832Z,0.88
2023-01-19T23:33:56.206Z,0.76
2023-01-19T23:36:25.468Z,0.82
2023-01-19T23:38:54.547Z,0.80
2023-01-19T23:41:22.940Z,0.83
2023-01-19T23:43:52.123Z,0.84
2023-01-19T23:46:20.533Z,0.86
2023-01-19T23:48:48.734Z,0.71
2023-01-19T23:51:18.571Z,0.68
2023-01-19T23:53:47.044Z,0.70
2023-01-19T23:56:17.391Z,0.74
2023-01-19T23:58:45.702Z,0.81
